createdAt,value
2017-07-17T00:00:44.719Z,88.83
2017-07-17T00:01:45.363Z,88.25
2017-07-17T00:02:46.004Z,88.45
2017-07-17T00:03:46.637Z,87.38
2017-07-17T00:04:47.273Z,88.35
2017-07-17T00:05:47.910Z,88.64
2017-07-17T00:06:48.554Z,88.06
2017-07-17T00:07:49.187Z,88.93
2017-07-17T00:08:50.025Z,88.02
2017-07-17T00:09:50.670Z,89.03
2017-07-17T00:10:51.311Z,88.54
2017-07-17T00:11:52.006Z,87.96
2017-07-17T00:12:52.641Z,87.58
2017-07-17T00:13:53.278Z,88.64
2017-07-17T00:14:53.916Z,87.87
2017-07-17T00:15:54.560Z,88.45
2017-07-17T00:16:55.443Z,87.48
2017-07-17T00:17:56.082Z,87.48
2017-07-17T00:18:56.718Z,87.67
2017-07-17T00:19:57.355Z,88.64
2017-07-17T00:20:57.993Z,87.77
2017-07-17T00:21:58.631Z,88.06
2017-07-17T00:22:59.276Z,88.45
2017-07-17T00:23:59.908Z,87.00
2017-07-17T00:25:00.746Z,87.77
2017-07-17T00:26:01.490Z,87.19
2017-07-17T00:27:02.126Z,87.00
2017-07-17T00:28:02.766Z,87.38
2017-07-17T00:29:03.401Z,87.34
2017-07-17T00:30:04.043Z,87.24
2017-07-17T00:31:04.677Z,87.24
2017-07-17T00:32:05.315Z,87.58
2017-07-17T00:33:06.157Z,88.11
2017-07-17T00:34:06.798Z,87.00
2017-07-17T00:35:07.439Z,86.80
2017-07-17T00:36:08.073Z,87.73
2017-07-17T00:37:08.710Z,87.73
2017-07-17T00:38:09.348Z,87.38
2017-07-17T00:39:09.996Z,87.34
2017-07-17T00:40:10.625Z,87.53
2017-07-17T00:41:11.264Z,86.96
2017-07-17T00:42:12.050Z,87.73
2017-07-17T00:43:12.694Z,87.82
2017-07-17T00:44:13.333Z,87.44
2017-07-17T00:45:13.976Z,88.11
2017-07-17T00:46:14.618Z,88.50
2017-07-17T00:47:15.256Z,87.05
2017-07-17T00:48:15.896Z,87.63
2017-07-17T00:49:16.539Z,87.63
2017-07-17T00:50:17.370Z,88.02
2017-07-17T00:51:18.009Z,87.73
2017-07-17T00:52:18.656Z,88.69
2017-07-17T00:53:19.292Z,88.31
2017-07-17T00:54:19.934Z,88.02
2017-07-17T00:55:20.570Z,88.11
2017-07-17T00:56:21.209Z,88.02
2017-07-17T00:57:21.850Z,87.73
2017-07-17T00:58:22.685Z,87.92
2017-07-17T00:59:23.322Z,88.50
2017-07-17T01:00:23.958Z,88.31
2017-07-17T01:01:24.597Z,87.63
2017-07-17T01:02:25.235Z,87.82
2017-07-17T01:03:25.872Z,87.53
2017-07-17T01:04:26.507Z,88.21
2017-07-17T01:05:27.146Z,88.11
2017-07-17T01:06:27.988Z,88.11
2017-07-17T01:07:28.629Z,87.63
2017-07-17T01:08:29.265Z,87.44
2017-07-17T01:09:29.905Z,88.11
2017-07-17T01:10:30.540Z,88.59
2017-07-17T01:11:31.183Z,87.82
2017-07-17T01:12:31.817Z,87.63
2017-07-17T01:13:32.456Z,88.02
2017-07-17T01:14:33.198Z,87.15
2017-07-17T01:15:33.835Z,88.11
2017-07-17T01:16:34.477Z,87.34
2017-07-17T01:17:35.112Z,87.53
2017-07-17T01:18:35.751Z,87.82
2017-07-17T01:19:36.387Z,87.53
2017-07-17T01:20:37.025Z,87.63
2017-07-17T01:21:37.666Z,87.53
2017-07-17T01:22:38.302Z,86.86
2017-07-17T01:23:39.086Z,87.73
2017-07-17T01:24:39.732Z,89.07
2017-07-17T01:25:40.321Z,89.47
2017-07-17T01:26:40.957Z,87.73
2017-07-17T01:27:41.594Z,87.53
2017-07-17T01:28:42.234Z,88.50
2017-07-17T01:29:42.875Z,87.44
2017-07-17T01:30:43.510Z,87.44
2017-07-17T01:31:44.346Z,87.92
2017-07-17T01:32:44.989Z,87.73
2017-07-17T01:33:45.623Z,87.53
2017-07-17T01:34:46.264Z,87.92
2017-07-17T01:35:46.906Z,87.34
2017-07-17T01:36:47.541Z,87.05
2017-07-17T01:37:48.184Z,87.15
2017-07-17T01:38:48.829Z,87.05
2017-07-17T01:39:49.615Z,88.59
2017-07-17T01:40:50.250Z,87.63
2017-07-17T01:41:50.893Z,87.44
2017-07-17T01:42:51.534Z,87.73
2017-07-17T01:43:52.173Z,86.86
2017-07-17T01:44:52.806Z,87.05
2017-07-17T01:45:53.442Z,86.57
2017-07-17T01:46:54.093Z,86.57
2017-07-17T01:47:54.930Z,87.15
2017-07-17T01:48:55.565Z,87.05
2017-07-17T01:49:56.206Z,86.96
2017-07-17T01:50:56.842Z,87.34
2017-07-17T01:51:57.482Z,87.73
2017-07-17T01:52:58.124Z,87.63
2017-07-17T01:53:58.757Z,87.92
2017-07-17T01:54:59.402Z,87.92
2017-07-17T01:56:00.033Z,87.63
2017-07-17T01:57:00.976Z,86.86
2017-07-17T01:58:01.616Z,87.73
2017-07-17T01:59:02.256Z,87.53
2017-07-17T02:00:02.898Z,87.34
2017-07-17T02:01:03.535Z,87.34
2017-07-17T02:02:04.172Z,87.44
2017-07-17T02:03:04.807Z,87.15
2017-07-17T02:04:05.444Z,86.66
2017-07-17T02:05:06.282Z,87.34
2017-07-17T02:06:06.918Z,87.53
2017-07-17T02:07:07.556Z,87.63
2017-07-17T02:08:08.194Z,87.63
2017-07-17T02:09:08.832Z,87.05
2017-07-17T02:10:09.473Z,86.76
2017-07-17T02:11:10.108Z,87.05
2017-07-17T02:12:10.751Z,88.02
2017-07-17T02:13:11.586Z,86.86
2017-07-17T02:14:12.226Z,87.73
2017-07-17T02:15:12.868Z,86.96
2017-07-17T02:16:13.513Z,87.73
2017-07-17T02:17:14.146Z,87.63
2017-07-17T02:18:14.789Z,87.82
2017-07-17T02:19:15.424Z,87.44
2017-07-17T02:20:16.060Z,87.92
2017-07-17T02:21:16.847Z,87.73
2017-07-17T02:22:17.484Z,88.40
2017-07-17T02:23:18.127Z,87.82
2017-07-17T02:24:18.766Z,87.92
2017-07-17T02:25:19.402Z,87.73
2017-07-17T02:26:20.042Z,86.96
2017-07-17T02:27:20.682Z,87.63
2017-07-17T02:28:21.327Z,87.34
2017-07-17T02:29:21.960Z,88.31
2017-07-17T02:30:22.801Z,87.53
2017-07-17T02:31:23.435Z,88.11
2017-07-17T02:32:24.077Z,87.44
2017-07-17T02:33:24.668Z,87.92
2017-07-17T02:34:25.303Z,87.24
2017-07-17T02:35:25.945Z,87.53
2017-07-17T02:36:26.587Z,88.69
2017-07-17T02:37:27.233Z,87.53
2017-07-17T02:38:28.063Z,87.34
2017-07-17T02:39:28.699Z,86.96
2017-07-17T02:40:29.339Z,87.05
2017-07-17T02:41:29.981Z,87.15
2017-07-17T02:42:30.619Z,87.73
2017-07-17T02:43:31.261Z,87.24
2017-07-17T02:44:31.894Z,87.92
2017-07-17T02:45:32.533Z,87.44
2017-07-17T02:46:33.381Z,88.50
2017-07-17T02:47:34.023Z,86.96
2017-07-17T02:48:34.662Z,87.82
2017-07-17T02:49:35.299Z,87.53
2017-07-17T02:50:35.939Z,86.86
2017-07-17T02:51:36.574Z,87.24
2017-07-17T02:52:37.208Z,87.15
2017-07-17T02:53:37.845Z,87.24
2017-07-17T02:54:38.637Z,86.38
2017-07-17T02:55:39.271Z,87.05
2017-07-17T02:56:39.913Z,87.15
2017-07-17T02:57:40.554Z,87.53
2017-07-17T02:58:41.189Z,87.92
2017-07-17T02:59:41.827Z,87.73
2017-07-17T03:00:42.464Z,87.92
2017-07-17T03:01:43.101Z,87.05
2017-07-17T03:02:43.941Z,87.63
2017-07-17T03:03:44.576Z,87.24
2017-07-17T03:04:45.212Z,87.92
2017-07-17T03:05:45.856Z,87.34
2017-07-17T03:06:46.491Z,87.24
2017-07-17T03:07:47.127Z,88.69
2017-07-17T03:08:47.763Z,86.96
2017-07-17T03:09:48.403Z,87.05
2017-07-17T03:10:49.044Z,86.76
2017-07-17T03:11:49.978Z,87.15
2017-07-17T03:12:50.619Z,87.44
2017-07-17T03:13:51.259Z,87.44
2017-07-17T03:14:51.900Z,87.24
2017-07-17T03:15:52.544Z,87.15
2017-07-17T03:16:53.173Z,86.76
2017-07-17T03:17:53.814Z,86.96
2017-07-17T03:18:54.456Z,87.53
2017-07-17T03:19:55.241Z,87.73
2017-07-17T03:20:55.880Z,87.15
2017-07-17T03:21:56.517Z,87.73
2017-07-17T03:22:57.159Z,86.96
2017-07-17T03:23:57.800Z,86.57
2017-07-17T03:24:58.434Z,86.38
2017-07-17T03:25:59.072Z,86.76
2017-07-17T03:26:59.708Z,87.15
2017-07-17T03:28:00.549Z,85.89
2017-07-17T03:29:01.184Z,87.34
2017-07-17T03:30:01.821Z,87.78
2017-07-17T03:31:02.469Z,87.15
2017-07-17T03:32:03.110Z,87.05
2017-07-17T03:33:03.748Z,86.86
2017-07-17T03:34:04.390Z,86.96
2017-07-17T03:35:05.024Z,87.20
2017-07-17T03:36:05.809Z,86.76
2017-07-17T03:37:06.451Z,86.62
2017-07-17T03:38:07.084Z,87.01
2017-07-17T03:39:07.723Z,86.96
2017-07-17T03:40:08.366Z,87.34
2017-07-17T03:41:09.007Z,87.49
2017-07-17T03:42:09.645Z,87.01
2017-07-17T03:43:10.280Z,87.01
2017-07-17T03:44:10.934Z,87.01
2017-07-17T03:45:11.764Z,86.91
2017-07-17T03:46:12.399Z,88.55
2017-07-17T03:47:13.035Z,87.10
2017-07-17T03:48:13.686Z,90.62
2017-07-17T03:49:14.315Z,90.43
2017-07-17T03:50:14.955Z,87.63
2017-07-17T03:51:15.594Z,87.92
2017-07-17T03:52:16.235Z,86.82
2017-07-17T03:53:17.077Z,86.57
2017-07-17T03:54:17.721Z,87.05
2017-07-17T03:55:18.356Z,86.62
2017-07-17T03:56:18.990Z,87.88
2017-07-17T03:57:19.633Z,87.20
2017-07-17T03:58:20.272Z,87.20
2017-07-17T03:59:20.903Z,87.10
2017-07-17T04:00:21.543Z,87.01
2017-07-17T04:01:22.380Z,87.01
2017-07-17T04:02:23.019Z,86.72
2017-07-17T04:03:23.656Z,86.52
2017-07-17T04:04:24.298Z,87.40
2017-07-17T04:05:24.934Z,86.91
2017-07-17T04:06:25.570Z,86.82
2017-07-17T04:07:26.216Z,87.78
2017-07-17T04:08:26.847Z,86.91
2017-07-17T04:09:27.633Z,86.52
2017-07-17T04:10:28.270Z,86.24
2017-07-17T04:11:28.912Z,87.01
2017-07-17T04:12:29.548Z,87.59
2017-07-17T04:13:30.186Z,87.01
2017-07-17T04:14:30.821Z,86.76
2017-07-17T04:15:31.471Z,86.91
2017-07-17T04:16:32.108Z,86.62
2017-07-17T04:17:32.948Z,87.10
2017-07-17T04:18:33.592Z,87.68
2017-07-17T04:19:34.228Z,86.52
2017-07-17T04:20:34.860Z,86.62
2017-07-17T04:21:35.501Z,86.72
2017-07-17T04:22:36.139Z,86.14
2017-07-17T04:23:36.780Z,86.33
2017-07-17T04:24:37.414Z,87.10
2017-07-17T04:25:38.058Z,88.55
2017-07-17T04:26:38.893Z,87.10
2017-07-17T04:27:39.529Z,87.01
2017-07-17T04:28:40.169Z,87.01
2017-07-17T04:29:40.807Z,86.72
2017-07-17T04:30:41.442Z,86.52
2017-07-17T04:31:42.088Z,87.01
2017-07-17T04:32:42.720Z,87.01
2017-07-17T04:33:43.356Z,87.88
2017-07-17T04:34:44.198Z,87.10
2017-07-17T04:35:44.845Z,88.75
2017-07-17T04:36:45.482Z,87.78
2017-07-17T04:37:46.116Z,86.82
2017-07-17T04:38:46.764Z,87.59
2017-07-17T04:39:47.395Z,86.91
2017-07-17T04:40:48.031Z,87.78
2017-07-17T04:41:48.673Z,87.01
2017-07-17T04:42:49.461Z,87.30
2017-07-17T04:43:50.102Z,87.10
2017-07-17T04:44:50.737Z,86.91
2017-07-17T04:45:51.380Z,87.01
2017-07-17T04:46:52.023Z,86.52
2017-07-17T04:47:52.653Z,86.72
2017-07-17T04:48:53.295Z,86.52
2017-07-17T04:49:53.928Z,86.52
2017-07-17T04:50:54.765Z,88.07
2017-07-17T04:51:55.403Z,87.10
2017-07-17T04:52:56.040Z,86.52
2017-07-17T04:53:56.675Z,87.59
2017-07-17T04:54:57.313Z,87.40
2017-07-17T04:55:57.955Z,87.20
2017-07-17T04:56:58.599Z,87.88
2017-07-17T04:57:59.236Z,87.01
2017-07-17T04:58:59.873Z,87.30
2017-07-17T05:00:00.708Z,87.10
2017-07-17T05:01:01.350Z,86.72
2017-07-17T05:02:01.984Z,87.59
2017-07-17T05:03:02.619Z,87.68
2017-07-17T05:04:03.257Z,86.72
2017-07-17T05:05:03.892Z,87.40
2017-07-17T05:06:04.533Z,86.52
2017-07-17T05:07:05.174Z,86.62
2017-07-17T05:08:06.117Z,87.30
2017-07-17T05:09:06.753Z,87.40
2017-07-17T05:10:07.388Z,86.14
2017-07-17T05:11:08.026Z,85.85
2017-07-17T05:12:08.663Z,85.66
2017-07-17T05:13:09.301Z,85.66
2017-07-17T05:14:09.935Z,86.33
2017-07-17T05:15:10.573Z,86.82
2017-07-17T05:16:11.414Z,86.04
2017-07-17T05:17:12.051Z,86.62
2017-07-17T05:18:12.692Z,86.33
2017-07-17T05:19:13.326Z,85.46
2017-07-17T05:20:13.961Z,85.46
2017-07-17T05:21:14.610Z,85.94
2017-07-17T05:22:15.247Z,86.52
2017-07-17T05:23:15.884Z,85.94
2017-07-17T05:24:16.719Z,86.24
2017-07-17T05:25:17.364Z,87.49
2017-07-17T05:26:18.008Z,87.40
2017-07-17T05:27:18.638Z,87.40
2017-07-17T05:28:19.274Z,88.07
2017-07-17T05:29:19.914Z,87.59
2017-07-17T05:30:20.551Z,89.23
2017-07-17T05:31:21.192Z,87.59
2017-07-17T05:32:22.081Z,87.59
2017-07-17T05:33:22.717Z,87.68
2017-07-17T05:34:23.365Z,87.59
2017-07-17T05:35:23.997Z,87.59
2017-07-17T05:36:24.633Z,86.91
2017-07-17T05:37:25.268Z,87.10
2017-07-17T05:38:25.909Z,87.10
2017-07-17T05:39:26.540Z,87.68
2017-07-17T05:40:27.181Z,88.36
2017-07-17T05:41:28.073Z,88.45
2017-07-17T05:42:28.712Z,87.01
2017-07-17T05:43:29.355Z,87.01
2017-07-17T05:44:29.985Z,87.20
2017-07-17T05:45:30.623Z,88.07
2017-07-17T05:46:31.265Z,87.10
2017-07-17T05:47:31.903Z,87.88
2017-07-17T05:48:32.548Z,87.40
2017-07-17T05:49:33.382Z,88.26
2017-07-17T05:50:34.022Z,88.75
2017-07-17T05:51:34.663Z,88.26
2017-07-17T05:52:35.303Z,88.26
2017-07-17T05:53:35.940Z,86.52
2017-07-17T05:54:36.577Z,86.72
2017-07-17T05:55:37.213Z,86.72
2017-07-17T05:56:37.855Z,86.82
2017-07-17T05:57:38.940Z,86.43
2017-07-17T05:58:39.583Z,87.88
2017-07-17T05:59:40.222Z,88.07
2017-07-17T06:00:40.872Z,86.91
2017-07-17T06:01:41.506Z,86.33
2017-07-17T06:02:42.143Z,87.78
2017-07-17T06:03:42.777Z,88.45
2017-07-17T06:04:43.414Z,86.72
2017-07-17T06:05:44.262Z,87.40
2017-07-17T06:06:44.891Z,88.45
2017-07-17T06:07:45.529Z,88.93
2017-07-17T06:08:46.166Z,88.36
2017-07-17T06:09:46.805Z,87.68
2017-07-17T06:10:47.438Z,88.93
2017-07-17T06:11:48.076Z,87.59
2017-07-17T06:12:49.218Z,87.88
2017-07-17T06:13:49.851Z,88.07
2017-07-17T06:14:50.641Z,88.36
2017-07-17T06:15:51.277Z,87.59
2017-07-17T06:16:51.915Z,86.33
2017-07-17T06:17:52.556Z,87.88
2017-07-17T06:18:53.190Z,87.92
2017-07-17T06:19:53.824Z,89.23
2017-07-17T06:20:54.462Z,87.53
2017-07-17T06:21:55.099Z,88.45
2017-07-17T06:22:55.938Z,87.01
2017-07-17T06:23:56.577Z,87.88
2017-07-17T06:24:57.219Z,87.40
2017-07-17T06:25:57.858Z,87.88
2017-07-17T06:26:58.495Z,87.10
2017-07-17T06:27:59.136Z,87.40
2017-07-17T06:28:59.782Z,88.55
2017-07-17T06:30:00.413Z,87.59
2017-07-17T06:31:01.208Z,87.01
2017-07-17T06:32:01.839Z,87.40
2017-07-17T06:33:02.487Z,86.91
2017-07-17T06:34:03.125Z,87.01
2017-07-17T06:35:03.761Z,86.14
2017-07-17T06:36:04.406Z,86.62
2017-07-17T06:37:05.043Z,87.01
2017-07-17T06:38:05.678Z,87.40
2017-07-17T06:39:06.514Z,87.30
2017-07-17T06:40:07.149Z,87.30
2017-07-17T06:41:07.786Z,87.49
2017-07-17T06:42:08.424Z,87.88
2017-07-17T06:43:09.063Z,87.01
2017-07-17T06:44:09.699Z,87.40
2017-07-17T06:45:10.336Z,87.10
2017-07-17T06:46:10.975Z,86.72
2017-07-17T06:47:11.763Z,88.07
2017-07-17T06:48:12.400Z,87.97
2017-07-17T06:49:13.037Z,88.07
2017-07-17T06:50:13.674Z,85.75
2017-07-17T06:51:14.312Z,87.24
2017-07-17T06:52:14.950Z,87.40
2017-07-17T06:53:15.594Z,86.91
2017-07-17T06:54:16.239Z,87.63
2017-07-17T06:55:16.871Z,87.20
2017-07-17T06:56:17.710Z,87.10
2017-07-17T06:57:18.359Z,87.97
2017-07-17T06:58:18.985Z,87.92
2017-07-17T06:59:19.628Z,87.88
2017-07-17T07:00:20.266Z,87.88
2017-07-17T07:01:20.900Z,87.49
2017-07-17T07:02:21.539Z,86.08
2017-07-17T07:03:22.179Z,85.66
2017-07-17T07:04:22.967Z,85.85
2017-07-17T07:05:23.611Z,85.56
2017-07-17T07:06:24.253Z,85.85
2017-07-17T07:07:24.887Z,85.27
2017-07-17T07:08:25.525Z,85.66
2017-07-17T07:09:26.161Z,87.20
2017-07-17T07:10:26.804Z,86.62
2017-07-17T07:11:27.437Z,86.14
2017-07-17T07:12:28.326Z,85.66
2017-07-17T07:13:28.961Z,86.52
2017-07-17T07:14:29.605Z,87.01
2017-07-17T07:15:30.244Z,87.20
2017-07-17T07:16:30.876Z,86.04
2017-07-17T07:17:31.520Z,85.27
2017-07-17T07:18:32.159Z,86.24
2017-07-17T07:19:32.799Z,87.20
2017-07-17T07:20:33.641Z,85.66
2017-07-17T07:21:34.275Z,85.85
2017-07-17T07:22:34.924Z,86.91
2017-07-17T07:23:35.554Z,86.14
2017-07-17T07:24:36.187Z,85.46
2017-07-17T07:25:36.825Z,85.94
2017-07-17T07:26:37.467Z,86.33
2017-07-17T07:27:38.106Z,86.04
2017-07-17T07:28:38.744Z,86.14
2017-07-17T07:29:39.678Z,86.24
2017-07-17T07:30:40.314Z,86.33
2017-07-17T07:31:40.952Z,87.10
2017-07-17T07:32:41.623Z,85.46
2017-07-17T07:33:42.233Z,86.14
2017-07-17T07:34:42.867Z,86.04
2017-07-17T07:35:43.516Z,87.01
2017-07-17T07:36:44.151Z,86.82
2017-07-17T07:37:45.089Z,85.75
2017-07-17T07:38:45.729Z,85.66
2017-07-17T07:39:46.368Z,86.33
2017-07-17T07:40:47.007Z,85.66
2017-07-17T07:41:47.647Z,84.50
2017-07-17T07:42:48.281Z,86.82
2017-07-17T07:43:48.918Z,88.93
2017-07-17T07:44:49.561Z,89.27
2017-07-17T07:45:50.394Z,88.69
2017-07-17T07:46:51.032Z,89.47
2017-07-17T07:47:51.675Z,89.27
2017-07-17T07:48:52.310Z,88.89
2017-07-17T07:49:52.949Z,89.27
2017-07-17T07:50:53.584Z,87.97
2017-07-17T07:51:54.222Z,89.17
2017-07-17T07:52:54.862Z,88.59
2017-07-17T07:53:55.649Z,87.82
2017-07-17T07:54:56.287Z,88.69
2017-07-17T07:55:56.923Z,88.89
2017-07-17T07:56:57.566Z,88.50
2017-07-17T07:57:58.199Z,88.59
2017-07-17T07:58:58.838Z,87.73
2017-07-17T07:59:59.475Z,88.40
2017-07-17T08:01:00.114Z,88.98
2017-07-17T08:02:00.961Z,87.44
2017-07-17T08:03:01.593Z,86.66
2017-07-17T08:04:02.239Z,87.82
2017-07-17T08:05:02.882Z,87.92
2017-07-17T08:06:03.569Z,87.63
2017-07-17T08:07:04.211Z,88.69
2017-07-17T08:08:04.846Z,89.27
2017-07-17T08:09:05.489Z,87.82
2017-07-17T08:10:06.124Z,87.44
2017-07-17T08:11:06.967Z,86.76
2017-07-17T08:12:07.602Z,87.82
2017-07-17T08:13:08.240Z,88.50
2017-07-17T08:14:08.875Z,88.98
2017-07-17T08:15:09.518Z,87.63
2017-07-17T08:16:10.156Z,87.53
2017-07-17T08:17:10.791Z,87.92
2017-07-17T08:18:11.377Z,88.59
2017-07-17T08:19:12.221Z,88.50
2017-07-17T08:20:12.856Z,88.79
2017-07-17T08:21:13.492Z,87.92
2017-07-17T08:22:14.140Z,87.63
2017-07-17T08:23:14.775Z,87.82
2017-07-17T08:24:15.420Z,88.31
2017-07-17T08:25:16.056Z,87.73
2017-07-17T08:26:16.695Z,87.92
2017-07-17T08:27:17.480Z,88.31
2017-07-17T08:28:18.135Z,88.02
2017-07-17T08:29:18.765Z,88.59
2017-07-17T08:30:19.406Z,88.59
2017-07-17T08:31:20.045Z,88.21
2017-07-17T08:32:20.684Z,88.50
2017-07-17T08:33:21.324Z,87.82
2017-07-17T08:34:21.959Z,88.31
2017-07-17T08:35:22.895Z,87.82
2017-07-17T08:36:23.533Z,88.02
2017-07-17T08:37:24.170Z,88.50
2017-07-17T08:38:24.808Z,87.53
2017-07-17T08:39:25.444Z,88.11
2017-07-17T08:40:26.080Z,88.11
2017-07-17T08:41:26.717Z,88.40
2017-07-17T08:42:27.363Z,88.50
2017-07-17T08:43:28.008Z,88.59
2017-07-17T08:44:28.844Z,88.40
2017-07-17T08:45:29.479Z,88.50
2017-07-17T08:46:30.117Z,88.40
2017-07-17T08:47:30.759Z,87.44
2017-07-17T08:48:31.395Z,87.05
2017-07-17T08:49:32.035Z,87.73
2017-07-17T08:50:32.673Z,87.63
2017-07-17T08:51:33.314Z,88.31
2017-07-17T08:52:34.098Z,87.92
2017-07-17T08:53:34.734Z,87.82
2017-07-17T08:54:35.373Z,87.44
2017-07-17T08:55:36.018Z,87.63
2017-07-17T08:56:36.658Z,88.02
2017-07-17T08:57:37.294Z,87.82
2017-07-17T08:58:37.938Z,87.73
2017-07-17T08:59:38.575Z,87.24
2017-07-17T09:00:39.412Z,87.05
2017-07-17T09:01:40.049Z,87.44
2017-07-17T09:02:40.692Z,88.11
2017-07-17T09:03:41.326Z,86.96
2017-07-17T09:04:41.966Z,86.66
2017-07-17T09:05:42.605Z,87.15
2017-07-17T09:06:43.247Z,86.57
2017-07-17T09:07:43.888Z,87.05
2017-07-17T09:08:44.727Z,86.76
2017-07-17T09:09:45.378Z,86.86
2017-07-17T09:10:46.004Z,87.05
2017-07-17T09:11:46.642Z,87.15
2017-07-17T09:12:47.285Z,87.24
2017-07-17T09:13:47.921Z,87.44
2017-07-17T09:14:48.560Z,86.96
2017-07-17T09:15:49.203Z,87.05
2017-07-17T09:16:49.989Z,87.05
2017-07-17T09:17:50.578Z,86.96
2017-07-17T09:18:51.217Z,87.05
2017-07-17T09:19:51.863Z,87.34
2017-07-17T09:20:52.504Z,87.34
2017-07-17T09:21:53.139Z,86.96
2017-07-17T09:22:53.786Z,87.34
2017-07-17T09:23:54.425Z,86.96
2017-07-17T09:24:55.061Z,87.15
2017-07-17T09:25:55.902Z,87.24
2017-07-17T09:26:56.593Z,87.15
2017-07-17T09:27:57.238Z,86.66
2017-07-17T09:28:57.874Z,86.71
2017-07-17T09:29:58.518Z,87.05
2017-07-17T09:30:59.153Z,86.18
2017-07-17T09:31:59.792Z,86.66
2017-07-17T09:33:00.478Z,85.70
2017-07-17T09:34:01.321Z,86.08
2017-07-17T09:35:01.963Z,86.57
2017-07-17T09:36:02.605Z,86.38
2017-07-17T09:37:03.245Z,85.64
2017-07-17T09:38:03.886Z,83.39
2017-07-17T09:39:04.529Z,85.26
2017-07-17T09:40:05.165Z,85.50
2017-07-17T09:41:05.801Z,85.41
2017-07-17T09:42:06.647Z,81.93
2017-07-17T09:43:07.288Z,83.29
2017-07-17T09:44:07.930Z,83.77
2017-07-17T09:45:08.572Z,83.42
2017-07-17T09:46:09.215Z,84.30
2017-07-17T09:47:09.864Z,84.30
2017-07-17T09:48:10.503Z,82.94
2017-07-17T09:49:11.147Z,82.07
2017-07-17T09:50:11.996Z,82.36
2017-07-17T09:51:12.643Z,82.31
2017-07-17T09:52:13.285Z,82.40
2017-07-17T09:53:13.924Z,81.34
2017-07-17T09:54:14.571Z,80.95
2017-07-17T09:55:15.211Z,80.08
2017-07-17T09:56:15.854Z,81.44
2017-07-17T09:57:16.504Z,80.47
2017-07-17T09:58:17.145Z,81.29
2017-07-17T09:59:17.986Z,80.32
2017-07-17T10:00:18.629Z,81.73
2017-07-17T10:01:19.275Z,80.90
2017-07-17T10:02:19.918Z,81.44
2017-07-17T10:03:20.566Z,81.29
2017-07-17T10:04:21.205Z,81.29
2017-07-17T10:05:21.849Z,81.38
2017-07-17T10:06:22.440Z,80.51
2017-07-17T10:07:23.285Z,80.41
2017-07-17T10:08:23.930Z,80.12
2017-07-17T10:09:24.574Z,80.90
2017-07-17T10:10:25.218Z,80.51
2017-07-17T10:11:25.860Z,80.12
2017-07-17T10:12:26.509Z,80.71
2017-07-17T10:13:27.156Z,80.90
2017-07-17T10:14:27.801Z,80.99
2017-07-17T10:15:28.643Z,80.71
2017-07-17T10:16:29.289Z,81.09
2017-07-17T10:17:29.929Z,80.41
2017-07-17T10:18:30.571Z,80.32
2017-07-17T10:19:31.213Z,80.22
2017-07-17T10:20:31.858Z,80.61
2017-07-17T10:21:32.501Z,81.19
2017-07-17T10:22:33.149Z,80.90
2017-07-17T10:23:33.938Z,80.80
2017-07-17T10:24:34.589Z,80.99
2017-07-17T10:25:35.239Z,80.51
2017-07-17T10:26:35.872Z,80.61
2017-07-17T10:27:36.519Z,80.32
2017-07-17T10:28:37.160Z,80.32
2017-07-17T10:29:37.800Z,79.93
2017-07-17T10:30:38.452Z,79.35
2017-07-17T10:31:39.306Z,79.54
2017-07-17T10:32:39.955Z,79.45
2017-07-17T10:33:40.591Z,79.06
2017-07-17T10:34:41.241Z,80.32
2017-07-17T10:35:41.881Z,79.45
2017-07-17T10:36:42.522Z,79.74
2017-07-17T10:37:43.167Z,79.93
2017-07-17T10:38:43.816Z,79.93
2017-07-17T10:39:44.518Z,79.68
2017-07-17T10:40:45.306Z,79.54
2017-07-17T10:41:45.956Z,79.97
2017-07-17T10:42:46.603Z,79.78
2017-07-17T10:43:47.246Z,79.39
2017-07-17T10:44:47.890Z,79.49
2017-07-17T10:45:48.539Z,79.39
2017-07-17T10:46:49.182Z,79.49
2017-07-17T10:47:49.826Z,79.39
2017-07-17T10:48:50.975Z,79.68
2017-07-17T10:49:51.615Z,78.81
2017-07-17T10:50:52.265Z,79.10
2017-07-17T10:51:52.916Z,78.81
2017-07-17T10:52:53.560Z,79.00
2017-07-17T10:53:54.212Z,78.91
2017-07-17T10:54:54.857Z,78.03
2017-07-17T10:55:55.504Z,78.33
2017-07-17T10:56:56.596Z,78.23
2017-07-17T10:57:57.251Z,77.84
2017-07-17T10:58:57.901Z,78.33
2017-07-17T10:59:58.539Z,77.94
2017-07-17T11:00:59.184Z,78.33
2017-07-17T11:01:59.833Z,78.03
2017-07-17T11:03:00.474Z,78.03
2017-07-17T11:04:01.120Z,78.03
2017-07-17T11:05:01.965Z,78.23
2017-07-17T11:06:02.610Z,77.30
2017-07-17T11:07:03.253Z,77.88
2017-07-17T11:08:03.897Z,77.75
2017-07-17T11:09:04.547Z,77.36
2017-07-17T11:10:05.192Z,77.69
2017-07-17T11:11:05.836Z,77.20
2017-07-17T11:12:06.479Z,76.97
2017-07-17T11:13:07.128Z,77.11
2017-07-17T11:14:07.979Z,77.11
2017-07-17T11:15:08.627Z,77.50
2017-07-17T11:16:09.283Z,76.97
2017-07-17T11:17:09.931Z,77.50
2017-07-17T11:18:10.578Z,76.78
2017-07-17T11:19:11.227Z,77.11
2017-07-17T11:20:11.875Z,76.33
2017-07-17T11:21:12.525Z,76.62
2017-07-17T11:22:13.369Z,76.43
2017-07-17T11:23:14.019Z,76.72
2017-07-17T11:24:14.666Z,76.33
2017-07-17T11:25:15.311Z,76.53
2017-07-17T11:26:15.960Z,76.62
2017-07-17T11:27:16.609Z,76.43
2017-07-17T11:28:17.265Z,76.24
2017-07-17T11:29:17.921Z,76.24
2017-07-17T11:30:23.712Z,76.14
2017-07-17T11:31:24.403Z,76.43
2017-07-17T11:32:25.011Z,75.85
2017-07-17T11:33:25.660Z,76.04
2017-07-17T11:34:26.314Z,75.56
2017-07-17T11:35:26.967Z,75.46
2017-07-17T11:36:27.615Z,75.56
2017-07-17T11:37:28.266Z,75.46
2017-07-17T11:38:29.266Z,75.17
2017-07-17T11:40:45.742Z,75.27
2017-07-17T11:41:46.396Z,75.56
2017-07-17T11:42:47.042Z,75.07
2017-07-17T11:43:47.688Z,75.37
2017-07-17T11:44:48.334Z,75.37
2017-07-17T11:45:48.989Z,74.82
2017-07-17T11:56:09.083Z,74.05
2017-07-17T11:57:09.650Z,73.57
2017-07-17T11:58:39.446Z,73.50
2017-07-17T11:59:40.094Z,73.50
2017-07-17T12:00:40.750Z,72.92
2017-07-17T12:01:41.398Z,73.21
2017-07-17T12:02:42.048Z,72.44
2017-07-17T12:03:42.847Z,73.02
2017-07-17T12:04:43.505Z,72.92
2017-07-17T12:05:44.154Z,72.53
2017-07-17T12:06:44.819Z,72.92
2017-07-17T12:07:45.470Z,72.24
2017-07-17T12:08:46.129Z,72.38
2017-07-17T12:09:46.775Z,71.89
2017-07-17T12:10:47.427Z,71.70
2017-07-17T12:11:48.283Z,71.22
2017-07-17T12:12:48.935Z,71.12
2017-07-17T12:13:49.586Z,70.18
2017-07-17T12:14:50.238Z,70.28
2017-07-17T12:15:50.891Z,69.99
2017-07-17T12:16:51.538Z,69.50
2017-07-17T12:17:52.187Z,68.82
2017-07-17T12:18:52.790Z,68.96
2017-07-17T12:19:53.639Z,68.86
2017-07-17T12:20:54.294Z,68.57
2017-07-17T12:21:54.942Z,68.47
2017-07-17T12:22:55.599Z,68.21
2017-07-17T12:23:56.253Z,67.83
2017-07-17T12:24:56.903Z,67.44
2017-07-17T12:25:57.551Z,67.63
2017-07-17T12:26:58.207Z,67.44
2017-07-17T12:27:58.854Z,67.05
2017-07-17T12:28:59.708Z,66.76
2017-07-17T12:30:00.357Z,66.99
2017-07-17T12:31:01.057Z,66.89
2017-07-17T12:32:01.714Z,66.89
2017-07-17T12:33:02.370Z,66.79
2017-07-17T12:34:03.025Z,66.99
2017-07-17T12:35:03.673Z,66.40
2017-07-17T12:36:04.341Z,66.63
2017-07-17T12:37:05.300Z,66.34
2017-07-17T12:38:05.946Z,65.56
2017-07-17T12:39:06.604Z,65.75
2017-07-17T12:40:07.253Z,65.56
2017-07-17T12:41:07.904Z,65.37
2017-07-17T12:42:08.556Z,64.81
2017-07-17T12:43:09.219Z,64.98
2017-07-17T12:44:09.918Z,64.78
2017-07-17T12:45:10.767Z,64.88
2017-07-17T12:46:11.424Z,64.30
2017-07-17T12:47:12.077Z,64.33
2017-07-17T12:48:12.741Z,64.53
2017-07-17T12:49:13.395Z,64.14
2017-07-17T12:50:14.039Z,63.94
2017-07-17T12:51:14.694Z,63.45
2017-07-17T12:52:15.355Z,63.45
2017-07-17T12:53:16.263Z,63.65
2017-07-17T12:54:16.920Z,63.84
2017-07-17T12:55:17.571Z,63.55
2017-07-17T12:56:18.232Z,62.97
2017-07-17T12:57:18.873Z,63.17
2017-07-17T12:58:19.537Z,63.17
2017-07-17T12:59:20.186Z,63.10
2017-07-17T13:00:20.837Z,62.71
2017-07-17T13:01:21.950Z,62.32
2017-07-17T13:02:22.600Z,62.41
2017-07-17T13:03:23.253Z,62.51
2017-07-17T13:04:23.955Z,62.51
2017-07-17T13:05:24.610Z,62.32
2017-07-17T13:06:25.269Z,61.83
2017-07-17T13:07:25.919Z,62.13
2017-07-17T13:08:26.574Z,62.13
2017-07-17T13:09:27.229Z,61.83
2017-07-17T13:10:28.032Z,62.03
2017-07-17T13:11:28.690Z,61.64
2017-07-17T13:12:29.343Z,61.47